Time;durP1;ratioP1;P1;durP2;ratioP2;P2;SDS_P1;SDS_P2;PMS_P1;PMS_P2;Temp;Humidity;BMP_temperature;BMP_pressure;BME280_temperature;BME280_humidity;BME280_pressure;Samples;Min_cycle;Max_cycle;Signal;HPM_P1;HPM_P2
2023/09/03 00:07:26;;;;;;;14.40;12.00;;;;;;;16.76;80.85;99189.35;435223;1256;97913;-41
2023/09/03 00:17:33;;;;;;;17.30;12.40;;;;;;;16.71;81.06;99188.58;435468;1250;110319;-42
2023/09/03 00:37:46;;;;;;;18.60;13.70;;;;;;;16.70;81.41;99184.94;435205;1250;510735;-42
2023/09/03 00:47:51;;;;;;;18.10;13.00;;;;;;;16.69;81.56;99181.35;435371;1253;108270;-42
2023/09/03 00:57:59;;;;;;;16.80;12.80;;;;;;;16.72;81.97;99180.83;435415;1249;97864;-41
2023/09/03 01:08:07;;;;;;;16.80;12.70;;;;;;;16.77;82.20;99161.05;435362;1253;110069;-43
2023/09/03 01:18:14;;;;;;;19.60;14.20;;;;;;;16.71;81.99;99160.22;435426;1253;107776;-41
2023/09/03 01:28:21;;;;;;;17.60;12.10;;;;;;;16.73;82.30;99174.96;436234;1249;97486;-42
2023/09/03 01:38:29;;;;;;;12.90;11.50;;;;;;;16.63;82.43;99181.34;435673;1253;107117;-41
2023/09/03 01:48:50;;;;;;;14.50;11.10;;;;;;;16.59;82.81;99178.70;435622;1250;97526;-43
2023/09/03 01:59:05;;;;;;;18.60;13.50;;;;;;;16.61;83.09;99190.13;435399;1253;111306;-43
2023/09/03 02:09:11;;;;;;;19.70;12.00;;;;;;;16.55;82.95;99207.23;435531;1253;108256;-43
2023/09/03 02:19:18;;;;;;;15.90;12.10;;;;;;;16.41;83.10;99201.02;435431;1253;97467;-42
2023/09/03 02:29:25;;;;;;;16.30;12.70;;;;;;;16.24;83.34;99205.55;435627;1253;108793;-42
2023/09/03 02:39:32;;;;;;;14.60;13.00;;;;;;;16.07;83.33;99184.95;435502;1253;97248;-43
2023/09/03 02:49:39;;;;;;;19.10;13.50;;;;;;;15.97;83.43;99186.81;435639;1253;109893;-44
2023/09/03 02:59:46;;;;;;;18.70;12.90;;;;;;;15.83;83.52;99191.20;435459;1250;107791;-43
2023/09/03 03:09:52;;;;;;;16.40;12.80;;;;;;;15.70;83.54;99182.95;435424;1253;97951;-43
2023/09/03 03:19:58;;;;;;;17.60;12.10;;;;;;;15.51;83.59;99179.29;435506;1263;107771;-43
2023/09/03 03:30:05;;;;;;;14.00;11.30;;;;;;;15.38;83.74;99174.86;435398;1249;97467;-42
2023/09/03 03:40:12;;;;;;;17.30;12.00;;;;;;;15.20;83.74;99172.01;435399;1253;110034;-43
2023/09/03 03:50:20;;;;;;;16.30;12.20;;;;;;;14.91;83.40;99166.54;435370;1253;108829;-44
2023/09/03 04:00:26;;;;;;;17.60;12.10;;;;;;;14.71;83.84;99173.60;435557;1253;97459;-43
2023/09/03 04:20:40;;;;;;;15.10;12.70;;;;;;;14.88;84.38;99177.30;435412;1253;109502;-41
2023/09/03 04:30:47;;;;;;;16.10;12.70;;;;;;;14.96;84.87;99188.41;435289;1253;99919;-42
2023/09/03 04:40:55;;;;;;;19.30;13.80;;;;;;;15.23;85.31;99193.09;435178;1251;108315;-42
2023/09/03 04:51:03;;;;;;;16.40;12.30;;;;;;;15.51;85.17;99195.71;435292;1253;97983;-44
2023/09/03 05:11:20;;;;;;;17.80;12.60;;;;;;;16.20;85.85;99200.86;435263;1250;108098;-43
2023/09/03 05:31:35;;;;;;;16.00;12.00;;;;;;;16.82;85.25;99223.55;435540;1253;109703;-42
2023/09/03 05:41:42;;;;;;;12.90;11.50;;;;;;;16.80;84.98;99227.11;435278;1253;108283;-43
2023/09/03 05:51:49;;;;;;;14.40;13.00;;;;;;;16.48;84.98;99223.76;435323;1253;97445;-42
2023/09/03 06:01:56;;;;;;;16.00;11.90;;;;;;;16.44;85.27;99226.02;435370;1253;110097;-42
2023/09/03 06:12:03;;;;;;;15.70;14.20;;;;;;;16.55;85.31;99223.02;435412;1253;97448;-42
2023/09/03 06:52:28;;;;;;;13.70;12.00;;;;;;;17.14;85.38;99237.23;435351;1251;110861;-42
2023/09/03 07:02:35;;;;;;;18.40;13.10;;;;;;;17.53;85.59;99244.93;435370;1253;109932;-42
2023/09/03 07:12:42;;;;;;;12.50;8.90;;;;;;;18.24;85.34;99239.17;435303;1253;96646;-42
2023/09/03 07:22:48;;;;;;;13.20;8.60;;;;;;;19.08;85.34;99249.38;435387;1253;107583;-42
2023/09/03 07:32:55;;;;;;;11.10;9.70;;;;;;;19.66;84.44;99260.81;435409;1250;97132;-42
2023/09/03 07:43:03;;;;;;;14.40;10.00;;;;;;;19.64;83.44;99272.84;435360;1253;110639;-43
2023/09/03 08:03:17;;;;;;;8.50;7.60;;;;;;;19.74;82.71;99291.11;435302;1250;97922;-42
2023/09/03 08:13:23;;;;;;;13.50;9.30;;;;;;;19.98;82.40;99295.46;435552;1253;110411;-41
2023/09/03 08:33:35;;;;;;;8.10;7.20;;;;;;;21.41;80.85;99305.01;435329;1253;97900;-41
2023/09/03 09:03:59;;;;;;;7.70;6.50;;;;;;;21.79;76.32;99322.02;435571;1254;98034;-42
2023/09/03 09:14:06;;;;;;;6.50;5.90;;;;;;;21.88;75.08;99322.92;435496;1253;108917;-41
2023/09/03 09:24:13;;;;;;;7.30;5.00;;;;;;;22.18;73.57;99317.66;435378;1263;97434;-43
2023/09/03 09:34:21;;;;;;;6.90;4.90;;;;;;;22.39;72.94;99320.88;435351;1264;110394;-42
2023/09/03 09:44:27;;;;;;;6.20;4.00;;;;;;;22.54;70.62;99330.02;435524;1254;108019;-41
2023/09/03 10:04:45;;;;;;;5.90;3.80;;;;;;;22.37;68.40;99313.84;435267;1262;110416;-41
2023/09/03 10:14:50;;;;;;;3.50;3.30;;;;;;;22.04;67.89;99313.73;435341;1254;108860;-41
2023/09/03 10:55:20;;;;;;;4.70;4.20;;;;;;;22.35;64.66;99315.42;435365;1251;96689;-42
2023/09/03 11:15:33;;;;;;;5.20;4.70;;;;;;;22.35;63.03;99314.67;435466;1251;109296;-43
2023/09/03 11:25:41;;;;;;;4.00;3.50;;;;;;;22.45;62.33;99306.19;435368;1254;97772;-42
2023/09/03 11:35:49;;;;;;;7.90;3.80;;;;;;;22.80;61.56;99304.34;435398;1258;110996;-42
2023/09/03 11:45:53;;;;;;;;;;;;;;;22.94;59.17;99307.91;435447;1254;108188;-42
2023/09/03 11:56:01;;;;;;;3.60;3.30;;;;;;;22.96;58.79;99304.00;435561;1251;119874;-42
2023/09/03 12:06:06;;;;;;;;;;;;;;;22.82;58.12;99292.02;435444;1254;108991;-44
2023/09/03 12:16:11;;;;;;;4.50;2.70;;;;;;;22.17;57.06;99298.15;435550;1249;97906;-43
2023/09/03 12:26:17;;;;;;;3.10;2.80;;;;;;;21.74;58.16;99298.70;435607;1253;109962;-42
2023/09/03 12:36:24;;;;;;;3.40;2.80;;;;;;;21.91;58.34;99295.10;432405;1254;3987931;-43
2023/09/03 12:56:35;;;;;;;4.90;3.00;;;;;;;22.20;57.12;99264.23;435393;1263;109720;-43
2023/09/03 13:06:42;;;;;;;3.60;2.50;;;;;;;22.23;55.65;99259.98;435251;1251;97865;-42
2023/09/03 13:16:50;;;;;;;2.30;2.10;;;;;;;22.40;55.02;99268.20;435394;1249;100152;-42
2023/09/03 13:26:57;;;;;;;21.50;10.40;;;;;;;22.46;54.31;99267.80;435643;1250;111338;-43
2023/09/03 13:37:04;;;;;;;7.50;2.80;;;;;;;22.59;54.45;99264.70;435566;1251;108767;-42
2023/09/03 13:47:11;;;;;;;4.80;2.50;;;;;;;22.58;54.35;99270.84;435454;1253;97463;-44
2023/09/03 13:57:18;;;;;;;2.80;2.50;;;;;;;22.50;54.45;99277.45;435524;1254;110638;-42
2023/09/03 14:07:22;;;;;;;3.80;2.40;;;;;;;22.45;53.32;99282.27;435524;1250;107386;-44
2023/09/03 14:17:30;;;;;;;2.70;2.30;;;;;;;22.41;53.42;99300.95;435453;1252;97945;-44
2023/09/03 14:27:36;;;;;;;;;;;;;;;22.27;52.80;99301.42;435446;1253;109761;-42
2023/09/03 14:37:43;;;;;;;3.20;2.80;;;;;;;21.95;53.17;99306.44;435507;1250;108138;-44
2023/09/03 14:47:50;;;;;;;3.50;3.20;;;;;;;21.46;54.25;99305.47;435507;1251;97937;-43
2023/09/03 14:57:56;;;;;;;4.00;2.70;;;;;;;21.24;55.04;99308.40;435583;1251;110214;-43
2023/09/03 15:08:04;;;;;;;3.20;2.70;;;;;;;21.22;55.29;99306.85;435379;1250;107445;-45
2023/09/03 15:28:15;;;;;;;5.00;2.60;;;;;;;21.21;55.84;99304.60;435504;1253;109332;-43
2023/09/03 15:38:20;;;;;;;4.10;3.00;;;;;;;21.03;55.85;99301.46;435654;1250;107461;-42
2023/09/03 15:58:36;;;;;;;8.10;6.20;;;;;;;20.56;57.11;99322.66;435595;1253;110658;-43
2023/09/03 16:08:43;;;;;;;8.50;4.50;;;;;;;20.44;57.74;99327.29;435462;1249;108600;-44
2023/09/03 16:18:50;;;;;;;8.40;4.00;;;;;;;20.27;58.24;99334.77;435668;1250;97850;-43
2023/09/03 16:28:57;;;;;;;4.60;3.00;;;;;;;20.03;58.60;99346.19;435540;1250;109577;-44
2023/09/03 16:49:11;;;;;;;3.70;3.30;;;;;;;19.47;59.25;99348.06;435606;1254;97973;-44
2023/09/03 16:59:20;;;;;;;4.00;3.30;;;;;;;19.19;59.62;99345.34;435735;1249;110745;-43
2023/09/03 17:09:27;;;;;;;7.00;3.90;;;;;;;18.94;60.17;99354.45;435433;1254;107481;-43
2023/09/03 17:29:41;;;;;;;6.10;4.70;;;;;;;18.69;61.54;99369.77;435453;1253;107892;-44
2023/09/03 17:59:58;;;;;;;5.90;4.40;;;;;;;18.10;63.31;99420.27;435516;1253;108652;-43
2023/09/03 18:10:06;;;;;;;5.90;4.40;;;;;;;17.96;63.48;99433.69;435617;1250;97877;-43
2023/09/03 18:20:13;;;;;;;5.80;3.60;;;;;;;17.85;63.86;99450.78;435520;1253;111245;-44
2023/09/03 18:30:18;;;;;;;5.40;3.50;;;;;;;17.74;64.21;99453.33;435627;1264;108260;-42
2023/09/03 18:40:26;;;;;;;6.70;4.50;;;;;;;17.66;64.76;99464.38;435716;1253;120325;-44
2023/09/03 18:50:35;;;;;;;7.10;4.80;;;;;;;17.56;65.22;99472.52;435598;1249;108011;-43
2023/09/03 19:00:42;;;;;;;6.60;4.50;;;;;;;17.41;65.57;99485.16;435656;1253;97899;-44
2023/09/03 19:10:55;;;;;;;6.00;5.30;;;;;;;17.33;65.94;99491.13;435644;1251;110121;-44
2023/09/03 19:21:02;;;;;;;8.90;5.10;;;;;;;17.32;66.37;99501.88;435552;1253;107325;-42
2023/09/03 19:41:14;;;;;;;9.10;5.60;;;;;;;17.31;66.75;99492.51;435680;1251;110895;-43
2023/09/03 19:51:19;;;;;;;8.80;4.60;;;;;;;17.20;66.74;99501.09;435536;1249;108025;-44
2023/09/03 20:01:29;;;;;;;8.10;4.10;;;;;;;17.10;66.95;99503.45;435640;1253;97877;-43
2023/09/03 20:11:36;;;;;;;5.60;4.10;;;;;;;17.07;67.47;99509.04;435700;1254;108096;-44
2023/09/03 20:21:44;;;;;;;8.60;5.10;;;;;;;17.02;67.59;99506.63;435753;1249;97184;-44
2023/09/03 20:31:51;;;;;;;6.50;5.30;;;;;;;16.88;68.01;99491.13;435493;1250;111401;-43
2023/09/03 20:41:57;;;;;;;8.30;4.50;;;;;;;16.68;68.09;99486.65;435646;1249;107384;-43
2023/09/03 21:02:10;;;;;;;5.90;4.50;;;;;;;16.40;69.12;99495.52;435677;1253;108947;-44
2023/09/03 21:12:17;;;;;;;6.40;4.60;;;;;;;16.26;69.47;99506.52;435746;1251;97024;-43
2023/09/03 21:22:24;;;;;;;7.20;5.30;;;;;;;16.08;69.66;99522.90;435512;1253;110883;-45
2023/09/03 21:32:30;;;;;;;6.10;4.60;;;;;;;15.93;70.00;99532.21;435586;1254;106660;-42
2023/09/03 21:52:43;;;;;;;7.50;5.70;;;;;;;15.76;71.30;99536.36;435412;1249;107682;-42
2023/09/03 22:02:50;;;;;;;9.10;4.80;;;;;;;15.62;71.96;99548.98;435658;1253;97861;-45
2023/09/03 22:12:58;;;;;;;5.90;4.80;;;;;;;15.60;72.58;99555.02;435500;1253;109394;-44
2023/09/03 22:23:05;;;;;;;6.50;4.40;;;;;;;15.61;73.13;99561.23;435584;1253;108622;-44
2023/09/03 22:33:12;;;;;;;6.70;4.50;;;;;;;15.63;73.15;99581.69;435440;1251;97902;-44
2023/09/03 22:43:19;;;;;;;5.10;4.60;;;;;;;15.51;73.38;99589.16;435476;1251;107650;-43
2023/09/03 22:53:27;;;;;;;8.80;4.00;;;;;;;15.36;73.45;99576.51;435539;1253;97868;-44
2023/09/03 23:03:35;;;;;;;9.00;4.70;;;;;;;15.28;73.67;99562.13;435455;1253;109793;-43
2023/09/03 23:23:49;;;;;;;8.80;4.80;;;;;;;15.00;74.09;99567.80;435564;1250;96662;-42
2023/09/03 23:33:55;;;;;;;4.90;3.50;;;;;;;14.80;74.33;99567.23;435462;1253;109107;-44
2023/09/03 23:44:02;;;;;;;5.00;3.50;;;;;;;14.65;74.52;99568.29;435536;1253;97957;-42
2023/09/03 23:54:07;;;;;;;8.50;3.30;;;;;;;14.54;74.75;99556.82;435624;1253;110965;-42
